Hidden Valley, Valles Caldera, New Mexico Weather observations

Data are for 10 minute period ending at time listed.
 Day   Time   Solar   Ave.   Ave.  Ave.  Vector  Max.   Baro.   Total    
  of    of     Rad.   Air    Rel.  Wind   Wind   Wind  Press.  Precip.   
Year   Day            Temp.  Hum.  Speed  Dir.   Gust                    
2014   (MST)  Kw/m2    F      %     mph   deg.    mph    mb.     in.     
-------------------------------------------------------------------------
 205    8:30   0.58   66.8    52    3.4   204     6.5   755.9    0.00 
 205    8:40   0.61   67.1    50    3.3   207     6.6   755.9    0.00 
 205    8:50   0.65   67.5    50    3.1   181     7.1   755.8    0.00 
 205    9:00   0.70   68.3    49    3.2   179     5.8   755.8    0.15 
 205    9:10   0.71   68.6    48    3.0   206     6.3   755.8    0.01 
 205    9:20   0.76   69.2    46    2.2   188     5.8   755.6    0.00 
 205    9:30   0.79   69.5    44    2.5   234     7.7   755.6    0.00 
 205    9:40   0.81   69.7    44    2.9   203     6.2   755.6    0.00 
 205    9:50   0.85   69.7    43    3.3   205     7.3   755.5    0.01 
 205   10:00   0.88   69.9    44    3.0   193     5.8   755.5    0.00 
 205   10:10   0.89   70.2    44    3.6   191     5.9   755.4    0.00 
 205   10:20   0.92   70.2    44    3.8   198     6.4   755.3    0.00 
 205   10:30   0.94   70.3    44    4.0   191     6.4   755.2    0.00 
 205   10:40   0.97   71.1    43    3.6   165    10.5   755.1    0.00 
 205   10:50   0.97   71.3    42    3.0   210     6.7   755.1    0.00 
 205   11:00   0.99   71.6    42    3.1   222     6.3   755.1    0.00 
 205   11:10   1.01   72.0    40    2.7   195     6.7   755.0    0.00 
 205   11:20   1.04   72.2    39    3.0   202     5.7   754.9    0.00 
 205   11:30   1.05   72.3    39    3.7   216     7.1   754.8    0.00 
 205   11:40   1.05   72.9    40    3.2   206     6.5   754.8    0.00 
 205   11:50   1.07   72.6    36    3.3   219     6.5   754.7    0.00 
 205   12:00   1.10   73.3    36    2.2   182     5.6   754.6    0.00 
 205   12:10   1.11   73.6    36    3.2   196     7.1   754.5    0.00 
 205   12:20   1.03   73.4    34    3.7   210     7.4   754.5    0.00 
 205   12:30   1.12   73.5    34    3.9   183     8.9   754.4    0.00 
 205   12:40   1.06   73.8    33    3.4   241     6.5   754.4    0.00 
 205   12:50   1.07   73.9    33    3.1   198     6.4   754.2    0.00 
 205   13:00   1.09   74.3    33    3.3   224     8.3   754.1    0.00 
 205   13:10   1.04   73.8    36    3.4   208     7.5   754.1    0.00 
 205   13:20   1.05   74.0    35    3.8   188     9.0   753.9    0.00 
 205   13:30   0.76   73.6    35    3.1   215     7.6   753.8    0.00 
 205   13:40   0.76   73.3    38    3.1   218     6.4   753.9    0.00 
 205   13:50   0.62   72.7    36    2.7   169     7.8   753.7    0.00 
 205   14:00   0.78   73.8    37    4.1   184     7.4   753.7    0.00 
 205   14:10   0.79   73.2    37    3.3   184     6.6   753.6    0.00 
 205   14:20   0.94   74.7    35    3.2   207     7.9   753.5    0.00 
 205   14:30   0.70   74.4    34    3.6   204     6.0   753.5    0.00 
 205   14:40   0.71   74.0    36    2.6   220     7.3   753.4    0.00 
 205   14:50   0.76   74.7    33    2.9   216     7.1   753.3    0.00 
 205   15:00   0.91   75.2    35    3.3   202     6.5   753.2    0.00 
 205   15:10   0.72   74.8    34    4.4   196     8.0   753.0    0.00 
 205   15:20   0.79   75.4    34    3.4   214     5.8   753.0    0.00 
 205   15:30   0.79   75.3    33    4.0   212     7.2   753.0    0.00 
 205   15:40   0.42   74.3    33    3.0   201     6.3   753.0    0.00 
 205   15:50   0.41   73.2    35    3.5   202     5.8   752.9    0.00 
 205   16:00   0.65   75.1    32    3.3   226     6.8   752.7    0.00 
 205   16:10   0.61   75.1    31    3.4   203     7.0   752.6    0.00 
 205   16:20   0.59   75.4    31    2.8   187     6.9   752.5    0.00 
 205   16:30   0.55   74.8    30    3.8   198     8.0   752.5    0.00 
 205   16:40   0.52   74.8    30    2.7   204     5.1   752.5    0.00 
 205   16:50   0.28   73.7    30    3.6   218     6.5   752.3    0.00 
 205   17:00   0.40   73.8    30    3.3   214     6.6   752.3    0.00 
 205   17:10   0.37   74.1    31    3.0   206     5.3   752.2    0.00 
 205   17:20   0.32   73.5    30    3.6   201     6.5   752.2    0.00 
 205   17:30   0.29   73.2    31    3.9   198     6.0   752.2    0.00 
 205   17:40   0.25   73.2    30    3.2   219     5.9   752.2    0.00 
 205   17:50   0.19   72.6    30    3.0   221     4.6   752.3    0.00 
 205   18:00   0.16   71.8    31    3.2   215     5.2   752.3    0.00 
 205   18:10   0.16   71.2    32    2.6   230     5.5   752.3    0.00 
 205   18:20   0.09   70.5    32    2.8   215     4.7   752.3    0.00 
 205   18:30   0.05   69.6    34    2.2   218     3.5   752.3    0.00 
 205   18:40   0.04   68.2    37    1.7   227     2.7   752.4    0.00 
 205   18:50   0.03   66.8    40    1.7   226     3.1   752.5    0.00 
 205   19:00   0.02   65.8    42    1.5   225     2.1   752.6    0.00 
 205   19:10   0.01   64.5    44    1.5   231     2.3   752.7    0.00 
 205   19:20   0.01   61.0    54    0.6   216     2.0   752.8    0.00 
 205   19:30   0.00   58.4    60    0.1   215     0.7   752.9    0.00 
 205   19:40   0.00   57.5    59    0.6   228     1.5   753.0    0.00 
 205   19:50   0.08   57.5    59    0.4   238     1.0   753.0    0.00 
 205   20:00   4.35   54.0    68    0.9   352     1.4   753.1    0.00 
 205   20:10   4.61   50.9    81    0.3   343     0.6   753.1    0.00 
 205   20:20   4.16   50.3    82    0.1   352     0.5   753.2    0.00 
 205   20:30   4.47   49.3    80    0.0   104     0.4   753.3    0.00 
 205   20:40   4.36   48.2    81    0.3    28     0.9   753.4    0.00 
 205   20:50   4.57   47.1    86    0.1    84     0.4   753.4    0.00 
 205   21:00   3.46   46.3    88    0.1   134     0.4   753.5    0.00 
 205   21:10   1.62   44.8    88    0.5    40     0.9   753.6    0.00 
 205   21:20   0.00   44.5    93    0.2   252     0.6   753.7    0.00 
 205   21:30   0.00   44.6    95    0.1    20     0.5   753.7    0.00 
 205   21:40   0.00   44.8    94    0.1    33     0.5   753.7    0.00 
 205   21:50   0.00   45.7    94    0.5   167     1.4   753.7    0.00 
 205   22:00   0.00   46.7    94    0.3   195     1.2   753.7    0.00 
 205   22:10   0.00   46.6    93    0.4     4     0.7   753.7    0.00 
 205   22:20   0.00   46.7    92    0.7    34     1.2   753.7    0.00 
 205   22:30   0.00   46.5    93    0.6   334     0.9   753.8    0.00 
 205   22:40   0.00   46.9    93    0.0   292     0.4   753.8    0.00 
 205   22:50   0.00   46.1    93    0.0    32     0.4   753.8    0.00 
 205   23:00   0.05   44.6    92    0.3    76     0.7   753.8    0.00 
 205   23:10   0.45   44.7    95    0.2   296     0.5   753.9    0.00 
 205   23:20   1.80   44.6    96    0.1   208     0.5   754.0    0.00 
 205   23:30   2.41   44.2    96    0.1   217     0.9   754.0    0.00 
 205   23:40   0.82   43.5    96    0.5    58     1.0   754.0    0.00 
 205   23:50   0.00   42.9    96    0.2    16     0.9   754.0    0.00 
 206    0:00   0.63   43.2    97    0.2   287     0.7   754.0    0.00 
 206    0:10   1.64   42.8    97    0.1   177     0.8   753.9    0.00 
 206    0:20   1.11   42.7    97    0.1   147     0.8   753.9    0.00 
 206    0:30   1.14   42.5    97    0.1    28     0.5   753.8    0.00 
 206    0:40   1.13   42.4    97    0.5     7     1.0   753.7    0.00 
 206    0:50   0.34   41.8    97    0.1    20     0.8   753.6    0.00 
 206    1:00   0.10   42.4    98    0.0   230     0.5   753.6    0.00 
 206    1:10   0.00   42.0    98    0.4   333     0.9   753.5    0.00 
 206    1:20   0.13   40.4    97    0.5    24     1.0   753.4    0.00 
 206    1:30   0.05   40.2    98    0.1   160     0.8   753.3    0.00 
 206    1:40   0.73   40.2    98    0.1    22     0.6   753.2    0.00 
 206    1:50   0.46   40.0    98    0.4    95     0.8   753.2    0.00 
 206    2:00   0.02   39.9    98    0.4   336     0.8   753.2    0.00 
 206    2:10   0.00   39.2    98    0.2    78     0.7   753.1    0.00 
 206    2:20   0.00   39.3    98    0.3   289     1.0   753.0    0.00 
 206    2:30   0.01   38.8    99    1.0   349     2.2   752.9    0.00 
 206    2:40   0.00   39.1    99    0.9   217     2.0   752.9    0.00 
 206    2:50   0.00   40.6    99    1.0   190     2.1   752.9    0.00 
 206    3:00   0.00   39.4    98    0.3    98     1.1   752.9    0.00 
 206    3:10   0.00   38.2    98    1.0    17     2.3   752.9    0.00 
 206    3:20   0.00   39.8    99    0.8   260     1.9   752.9    0.00 
 206    3:30   0.00   39.6    98    0.6   128     1.2   752.9    0.00 
 206    3:40   0.00   38.1    97    0.9    18     2.0   752.9    0.00 
 206    3:50   0.00   38.0    98    0.1    64     1.0   752.9    0.00 
 206    4:00   0.26   38.5    98    0.4   201     1.2   753.0    0.00 
 206    4:10   0.58   38.1    98    0.1   331     0.5   753.0    0.00 
 206    4:20   0.00   37.2    98    0.1    74     0.7   753.1    0.00 
 206    4:30   0.00   37.1    98    0.3   170     0.8   753.1    0.00 
 206    4:40   0.00   36.9    99    0.5     0     0.9   753.1    0.00 
 206    4:50   0.17   36.1    99    0.3   357     0.9   753.1    0.00 
 206    5:00   0.04   35.6    99    0.6    14     0.9   753.2    0.00 
 206    5:10   0.91   35.4    99    0.5    13     0.9   753.3    0.00 
 206    5:20   0.29   35.2    99    0.5   311     1.4   753.4    0.00 
 206    5:30   0.01   35.7    99    0.5   214     1.4   753.4    0.00 
 206    5:40   0.05   36.1    99    0.3   126     0.8   753.5    0.00 
 206    5:50   0.10   36.4    99    0.5    11     1.6   753.5    0.00 
 206    6:00   0.16   38.4    99    0.4   351     1.0   753.6    0.00 
 206    6:10   0.50   40.7    98    0.4   219     1.3   753.6    0.00 
 206    6:20   0.19   43.4    97    0.3   130     1.0   753.6    0.00 
 206    6:30   0.21   47.0    89    0.4    74     1.0   753.6    0.00 
 206    6:40   0.24   49.1    86    0.1   229     0.6   753.7    0.00 
 206    6:50   0.27   51.5    81    0.4    39     0.9   753.7    0.00 
 206    7:00   0.30   53.5    77    0.7    29     1.4   753.7    0.00 
 206    7:10   0.34   55.1    73    0.4    47     1.0   753.8    0.00 
 206    7:20   0.37   57.5    68    0.2   100     0.6   753.8    0.00 
 206    7:30   0.74   59.7    59    0.4    40     1.2   753.8    0.00 
 206    7:40   1.12   61.4    60    0.2    66     0.8   753.9    0.00 
 206    7:50   1.28   62.6    59    0.5    63     1.3   753.8    0.00 
 206    8:00   1.22   64.7    57    0.5    12     1.2   753.7    0.00 
 206    8:10   1.09   65.3    55    0.5   353     1.8   753.7    0.00 
 206    8:20   0.84   66.9    51    0.6    68     2.2   753.6    0.00 

Return to Hidden Valley, Valles Caldera graphs page.


Western Regional Climate Center,wrcc@dri.edu